Time;durP1;ratioP1;P1;durP2;ratioP2;P2;SDS_P1;SDS_P2;PMS_P1;PMS_P2;Temp;Humidity;BMP_temperature;BMP_pressure;BME280_temperature;BME280_humidity;BME280_pressure;Samples;Min_cycle;Max_cycle;Signal;HPM_P1;HPM_P2
2021/03/06 00:02:11;;;;;;;14.03;4.60;;;;;;;;;;4985597;28;20253;-85
2021/03/06 00:04:36;;;;;;;19.03;4.93;;;;;;;;;;4993434;28;20582;-85
2021/03/06 00:07:02;;;;;;;8.43;3.73;;;;;;;;;;4998291;28;20022;-85
2021/03/06 00:09:27;;;;;;;18.35;5.60;;;;;;;;;;5000925;28;20073;-84
2021/03/06 00:11:52;;;;;;;15.73;4.00;;;;;;;;;;5023332;28;20030;-85
2021/03/06 00:14:17;;;;;;;17.92;4.55;;;;;;;;;;5018595;28;20294;-84
2021/03/06 00:16:43;;;;;;;17.52;4.70;;;;;;;;;;5014629;28;20085;-83
2021/03/06 00:19:08;;;;;;;11.97;3.87;;;;;;;;;;4989886;28;20489;-86
2021/03/06 00:21:33;;;;;;;17.45;5.00;;;;;;;;;;5012743;28;20021;-86
2021/03/06 00:23:58;;;;;;;17.17;4.88;;;;;;;;;;4983938;28;20028;-83
2021/03/06 00:26:23;;;;;;;12.38;4.78;;;;;;;;;;5000949;28;20036;-83
2021/03/06 00:28:49;;;;;;;13.90;5.03;;;;;;;;;;5006356;28;20104;-84
2021/03/06 00:31:14;;;;;;;12.93;4.00;;;;;;;;;;5005350;28;20022;-84
2021/03/06 00:33:39;;;;;;;11.33;4.97;;;;;;;;;;5011393;28;20109;-85
2021/03/06 00:36:04;;;;;;;12.13;4.77;;;;;;;;;;5005165;28;20030;-86
2021/03/06 00:38:30;;;;;;;15.32;5.22;;;;;;;;;;4985877;28;20909;-85
2021/03/06 00:40:55;;;;;;;18.23;6.00;;;;;;;;;;4993995;28;20032;-85
2021/03/06 00:43:20;;;;;;;13.70;4.10;;;;;;;;;;4994050;28;20697;-86
2021/03/06 00:45:45;;;;;;;13.87;3.67;;;;;;;;;;4994173;28;20022;-85
2021/03/06 00:48:10;;;;;;;12.80;3.73;;;;;;;;;;4987204;28;20423;-86
2021/03/06 00:50:36;;;;;;;9.45;3.88;;;;;;;;;;4987644;28;20654;-86
2021/03/06 00:53:01;;;;;;;11.32;3.60;;;;;;;;;;4982277;28;20512;-86
2021/03/06 00:55:27;;;;;;;12.48;4.43;;;;;;;;;;4988995;28;20025;-86
2021/03/06 00:57:52;;;;;;;7.73;3.07;;;;;;;;;;4993650;28;20019;-86
2021/03/06 01:00:17;;;;;;;12.60;3.40;;;;;;;;;;4988516;28;20267;-86
2021/03/06 01:02:43;;;;;;;18.38;4.00;;;;;;;;;;5005639;28;20061;-84
2021/03/06 01:05:08;;;;;;;9.43;3.92;;;;;;;;;;5001419;28;20094;-84
2021/03/06 01:07:33;;;;;;;9.18;3.40;;;;;;;;;;4985385;28;20043;-84
2021/03/06 01:09:58;;;;;;;7.47;3.22;;;;;;;;;;4987236;28;20034;-84
2021/03/06 01:12:24;;;;;;;11.27;4.57;;;;;;;;;;4973331;28;20130;-84
2021/03/06 01:14:49;;;;;;;8.18;3.63;;;;;;;;;;4973030;28;20038;-84
2021/03/06 01:17:14;;;;;;;9.80;4.50;;;;;;;;;;4965189;28;20034;-83
2021/03/06 01:19:39;;;;;;;13.17;4.80;;;;;;;;;;4972592;28;20783;-84
2021/03/06 01:22:04;;;;;;;14.63;3.40;;;;;;;;;;4985373;28;20291;-84
2021/03/06 01:24:30;;;;;;;9.97;3.33;;;;;;;;;;4987813;28;20351;-85
2021/03/06 01:26:55;;;;;;;13.67;4.23;;;;;;;;;;4989240;28;20748;-85
2021/03/06 01:29:20;;;;;;;12.52;3.92;;;;;;;;;;4981495;28;20026;-85
2021/03/06 01:31:47;;;;;;;11.68;4.07;;;;;;;;;;4979627;28;20030;-85
2021/03/06 01:34:12;;;;;;;15.05;3.65;;;;;;;;;;4974266;28;20035;-85
2021/03/06 01:36:37;;;;;;;25.02;3.67;;;;;;;;;;4978947;28;20022;-85
2021/03/06 01:39:02;;;;;;;9.47;3.53;;;;;;;;;;4982618;28;20030;-85
2021/03/06 01:41:27;;;;;;;14.93;4.03;;;;;;;;;;4996369;28;20259;-85
2021/03/06 01:43:53;;;;;;;12.70;3.90;;;;;;;;;;4998071;28;20026;-85
2021/03/06 01:46:18;;;;;;;10.63;4.80;;;;;;;;;;4992762;28;20041;-85
2021/03/06 01:48:43;;;;;;;9.53;3.97;;;;;;;;;;4993355;28;20284;-85
2021/03/06 01:51:09;;;;;;;15.73;6.13;;;;;;;;;;5006048;28;20608;-85
2021/03/06 01:53:34;;;;;;;15.25;4.63;;;;;;;;;;5004862;28;20258;-84
2021/03/06 01:56:00;;;;;;;12.63;4.13;;;;;;;;;;5015158;28;20425;-84
2021/03/06 01:58:25;;;;;;;12.73;4.10;;;;;;;;;;4993527;28;20017;-84
2021/03/06 02:00:50;;;;;;;16.35;3.65;;;;;;;;;;4987040;28;20060;-84
2021/03/06 02:03:16;;;;;;;12.60;4.97;;;;;;;;;;5015492;28;20018;-84
2021/03/06 02:05:42;;;;;;;12.25;3.70;;;;;;;;;;5015106;28;20070;-84
2021/03/06 02:08:07;;;;;;;9.65;4.00;;;;;;;;;;5010382;28;20037;-84
2021/03/06 02:10:36;;;;;;;13.97;4.73;;;;;;;;;;5006657;28;20021;-84
2021/03/06 02:13:04;;;;;;;16.90;4.85;;;;;;;;;;4993040;28;20034;-84
2021/03/06 02:15:32;;;;;;;12.15;3.63;;;;;;;;;;4985800;28;20022;-83
2021/03/06 02:18:02;;;;;;;13.82;4.40;;;;;;;;;;4981427;28;20038;-84
2021/03/06 02:20:41;;;;;;;12.52;4.00;;;;;;;;;;4993804;28;20025;-84
2021/03/06 02:23:13;;;;;;;14.20;4.15;;;;;;;;;;5003377;28;20056;-85
2021/03/06 02:25:58;;;;;;;16.52;4.18;;;;;;;;;;5013920;28;20049;-85
2021/03/06 02:28:42;;;;;;;19.08;4.45;;;;;;;;;;5000716;28;20013;-84
2021/03/06 02:31:09;;;;;;;17.20;5.15;;;;;;;;;;4999921;28;20626;-84
2021/03/06 02:33:35;;;;;;;11.50;3.88;;;;;;;;;;4997078;28;20029;-85
2021/03/06 02:36:02;;;;;;;16.98;4.68;;;;;;;;;;5016884;28;20152;-85
2021/03/06 02:38:29;;;;;;;12.13;4.22;;;;;;;;;;5007167;28;20018;-86
2021/03/06 02:40:54;;;;;;;12.45;4.53;;;;;;;;;;5006594;28;20014;-85
2021/03/06 02:43:20;;;;;;;12.65;4.70;;;;;;;;;;5016120;28;20826;-85
2021/03/06 02:45:45;;;;;;;14.52;4.00;;;;;;;;;;4997086;28;20065;-85
2021/03/06 02:48:11;;;;;;;8.27;3.55;;;;;;;;;;4992979;28;20066;-85
2021/03/06 02:50:36;;;;;;;9.77;4.63;;;;;;;;;;4997217;28;20501;-85
2021/03/06 02:53:01;;;;;;;9.43;3.40;;;;;;;;;;5015000;28;20287;-85
2021/03/06 02:55:26;;;;;;;11.05;3.47;;;;;;;;;;4994546;28;20034;-85
2021/03/06 02:58:11;;;;;;;5.50;2.85;;;;;;;;;;5017204;28;20017;-85
2021/03/06 03:00:44;;;;;;;16.42;4.03;;;;;;;;;;5020209;28;20025;-85
2021/03/06 03:03:28;;;;;;;13.15;3.95;;;;;;;;;;5001804;28;20021;-85
2021/03/06 03:06:10;;;;;;;9.88;4.35;;;;;;;;;;4988905;28;20108;-85
2021/03/06 03:08:43;;;;;;;11.25;3.78;;;;;;;;;;4989179;28;20466;-85
2021/03/06 03:11:11;;;;;;;13.40;3.63;;;;;;;;;;4994770;28;20028;-85
2021/03/06 03:14:02;;;;;;;11.43;4.47;;;;;;;;;;4982893;28;20022;-85
2021/03/06 03:16:54;;;;;;;10.30;3.88;;;;;;;;;;4992985;28;20034;-86
2021/03/06 03:19:39;;;;;;;7.97;3.15;;;;;;;;;;5007856;28;20065;-86
2021/03/06 03:22:05;;;;;;;13.00;4.07;;;;;;;;;;4918484;29;20495;-86
2021/03/06 03:24:32;;;;;;;11.25;3.88;;;;;;;;;;4930796;29;20064;-84
2021/03/06 03:26:57;;;;;;;11.10;3.17;;;;;;;;;;4919221;29;20074;-84
2021/03/06 03:29:42;;;;;;;11.13;2.80;;;;;;;;;;4920070;29;20024;-86
2021/03/06 03:32:09;;;;;;;10.27;3.42;;;;;;;;;;4934951;29;20079;-86
2021/03/06 03:34:35;;;;;;;9.73;3.80;;;;;;;;;;4929784;29;20086;-86
2021/03/06 03:37:00;;;;;;;14.90;3.35;;;;;;;;;;4935356;29;20115;-86
2021/03/06 03:39:53;;;;;;;7.13;3.33;;;;;;;;;;4942300;29;20023;-87
2021/03/06 03:42:21;;;;;;;12.30;4.70;;;;;;;;;;4903044;29;20747;-84
2021/03/06 03:44:50;;;;;;;8.68;4.10;;;;;;;;;;4888343;29;20076;-83
2021/03/06 03:47:18;;;;;;;8.88;4.05;;;;;;;;;;4900711;29;20097;-84
2021/03/06 03:49:44;;;;;;;15.90;3.95;;;;;;;;;;4884536;29;20064;-83
2021/03/06 03:52:10;;;;;;;10.45;3.85;;;;;;;;;;4878816;29;20116;-83
2021/03/06 03:54:35;;;;;;;13.10;3.40;;;;;;;;;;4891348;29;20048;-83
2021/03/06 03:57:01;;;;;;;9.73;3.75;;;;;;;;;;4884191;29;20036;-83
2021/03/06 03:59:27;;;;;;;9.30;5.25;;;;;;;;;;4914083;29;20032;-87
2021/03/06 04:01:52;;;;;;;10.52;3.30;;;;;;;;;;4936200;29;20043;-85
2021/03/06 04:04:25;;;;;;;10.67;3.73;;;;;;;;;;4939176;29;20361;-83
2021/03/06 04:06:51;;;;;;;6.63;3.70;;;;;;;;;;4941649;29;20273;-84
2021/03/06 04:09:16;;;;;;;10.05;3.53;;;;;;;;;;4949226;29;20027;-84
2021/03/06 04:11:41;;;;;;;11.00;3.83;;;;;;;;;;4954607;29;20038;-84
2021/03/06 04:14:06;;;;;;;11.60;3.67;;;;;;;;;;4986968;28;20030;-83
2021/03/06 04:16:32;;;;;;;16.97;4.10;;;;;;;;;;4995881;28;20760;-83
2021/03/06 04:18:57;;;;;;;17.08;3.60;;;;;;;;;;4992010;28;20404;-85
2021/03/06 04:21:22;;;;;;;10.67;5.50;;;;;;;;;;4996016;28;20044;-85
2021/03/06 04:23:47;;;;;;;15.98;4.40;;;;;;;;;;4991062;28;20263;-85
2021/03/06 04:26:13;;;;;;;6.07;3.33;;;;;;;;;;4989266;28;20088;-86
2021/03/06 04:28:38;;;;;;;19.52;4.82;;;;;;;;;;4992288;28;20025;-84
2021/03/06 04:31:03;;;;;;;12.48;4.35;;;;;;;;;;4992274;28;20029;-84
2021/03/06 04:33:28;;;;;;;10.73;3.65;;;;;;;;;;4991287;28;20017;-84
2021/03/06 04:35:53;;;;;;;12.87;4.10;;;;;;;;;;4995505;28;20025;-84
2021/03/06 04:38:19;;;;;;;8.37;3.53;;;;;;;;;;5000964;28;20294;-84
2021/03/06 04:40:44;;;;;;;6.40;3.35;;;;;;;;;;5010653;28;20333;-84
2021/03/06 04:43:09;;;;;;;9.37;4.17;;;;;;;;;;5000393;28;20018;-84
2021/03/06 04:45:34;;;;;;;10.55;3.88;;;;;;;;;;5032917;28;20247;-84
2021/03/06 04:47:59;;;;;;;9.90;3.93;;;;;;;;;;5015860;28;20478;-84
2021/03/06 04:50:24;;;;;;;6.97;3.70;;;;;;;;;;4992738;28;20022;-84
2021/03/06 04:52:50;;;;;;;10.88;3.85;;;;;;;;;;5005957;28;21082;-84
2021/03/06 04:55:15;;;;;;;12.97;4.47;;;;;;;;;;4986827;28;20043;-84
2021/03/06 04:57:40;;;;;;;17.67;4.37;;;;;;;;;;4991755;28;20272;-84
2021/03/06 05:00:06;;;;;;;9.75;4.60;;;;;;;;;;5013831;28;20259;-84
2021/03/06 05:02:32;;;;;;;14.43;4.03;;;;;;;;;;5010433;28;20038;-83
2021/03/06 05:04:58;;;;;;;14.13;3.83;;;;;;;;;;4993709;28;20067;-84
2021/03/06 05:07:24;;;;;;;14.63;3.90;;;;;;;;;;5004418;28;20671;-83
2021/03/06 05:09:49;;;;;;;15.43;4.82;;;;;;;;;;4980368;28;20111;-83
2021/03/06 05:12:14;;;;;;;15.07;4.90;;;;;;;;;;4989586;28;20023;-83
2021/03/06 05:14:39;;;;;;;11.33;4.90;;;;;;;;;;5010646;28;20263;-83
2021/03/06 05:17:04;;;;;;;9.60;4.37;;;;;;;;;;4987515;28;20252;-84
2021/03/06 05:19:30;;;;;;;12.17;4.20;;;;;;;;;;5007553;28;20259;-84
2021/03/06 05:21:55;;;;;;;12.88;4.38;;;;;;;;;;5005995;28;20288;-84
2021/03/06 05:24:20;;;;;;;9.00;3.67;;;;;;;;;;4991252;28;20084;-85
2021/03/06 05:26:47;;;;;;;12.37;4.53;;;;;;;;;;4993107;28;20271;-83
2021/03/06 05:29:12;;;;;;;14.20;4.53;;;;;;;;;;4983022;28;20264;-83
2021/03/06 05:31:37;;;;;;;8.57;4.10;;;;;;;;;;5009445;28;20025;-83
2021/03/06 05:34:02;;;;;;;18.30;6.40;;;;;;;;;;4982884;28;20664;-83
2021/03/06 05:36:28;;;;;;;19.87;5.30;;;;;;;;;;5012087;28;20279;-82
2021/03/06 05:38:53;;;;;;;12.43;4.25;;;;;;;;;;5011644;28;20639;-83
2021/03/06 05:41:19;;;;;;;12.93;4.28;;;;;;;;;;4982163;28;20045;-81
2021/03/06 05:43:45;;;;;;;15.50;4.47;;;;;;;;;;4985318;28;20042;-83
2021/03/06 05:46:10;;;;;;;8.10;4.55;;;;;;;;;;5000571;28;20028;-81
2021/03/06 05:48:35;;;;;;;8.83;5.00;;;;;;;;;;5018163;28;20062;-81
2021/03/06 05:51:01;;;;;;;13.40;5.15;;;;;;;;;;4998545;28;20286;-83
2021/03/06 05:53:29;;;;;;;14.82;5.60;;;;;;;;;;5005317;28;20025;-83
2021/03/06 05:55:55;;;;;;;16.15;7.82;;;;;;;;;;5003070;28;20037;-83
2021/03/06 05:58:21;;;;;;;11.55;4.90;;;;;;;;;;5020468;28;20021;-83
2021/03/06 06:00:49;;;;;;;17.65;5.00;;;;;;;;;;5004906;28;20053;-83
2021/03/06 06:03:16;;;;;;;7.75;4.70;;;;;;;;;;4997081;28;20026;-83
2021/03/06 06:05:41;;;;;;;10.23;5.47;;;;;;;;;;4999943;28;20026;-83
2021/03/06 06:08:08;;;;;;;10.02;4.50;;;;;;;;;;4997602;28;20029;-83
2021/03/06 06:10:33;;;;;;;15.55;6.20;;;;;;;;;;4999157;28;20057;-85
2021/03/06 06:12:59;;;;;;;19.48;5.45;;;;;;;;;;5005126;28;20065;-83
2021/03/06 06:15:24;;;;;;;12.70;5.88;;;;;;;;;;5006469;28;20030;-84
2021/03/06 06:17:49;;;;;;;13.93;5.05;;;;;;;;;;4997677;28;20806;-83
2021/03/06 06:20:16;;;;;;;12.35;5.28;;;;;;;;;;4991861;28;20018;-83
2021/03/06 06:22:41;;;;;;;17.08;6.22;;;;;;;;;;5013068;28;20073;-83
2021/03/06 06:25:07;;;;;;;13.52;5.35;;;;;;;;;;5014258;28;20021;-84
2021/03/06 06:27:32;;;;;;;16.58;7.20;;;;;;;;;;5002587;28;20538;-83
2021/03/06 06:29:59;;;;;;;12.48;5.95;;;;;;;;;;4987553;28;20022;-84
2021/03/06 06:32:26;;;;;;;12.98;4.95;;;;;;;;;;4989096;28;20631;-83
2021/03/06 06:35:04;;;;;;;16.17;5.95;;;;;;;;;;4989813;28;20045;-83
2021/03/06 06:37:30;;;;;;;12.65;5.38;;;;;;;;;;4990326;28;20019;-83
2021/03/06 06:39:56;;;;;;;14.65;5.82;;;;;;;;;;4994552;28;20037;-84
2021/03/06 06:42:34;;;;;;;12.10;5.55;;;;;;;;;;5013341;28;20019;-83
2021/03/06 06:45:00;;;;;;;17.90;7.25;;;;;;;;;;5017438;28;20021;-83
2021/03/06 06:47:32;;;;;;;23.58;7.63;;;;;;;;;;4997557;28;20026;-84
2021/03/06 06:49:58;;;;;;;25.08;7.75;;;;;;;;;;4998243;28;20046;-83
2021/03/06 06:52:23;;;;;;;17.77;8.07;;;;;;;;;;4997274;28;20493;-81
2021/03/06 06:54:56;;;;;;;13.73;6.15;;;;;;;;;;5018430;28;20102;-83
2021/03/06 06:57:22;;;;;;;18.35;6.28;;;;;;;;;;5000245;28;20084;-83
2021/03/06 07:00:02;;;;;;;18.85;5.95;;;;;;;;;;5003289;28;20115;-83
2021/03/06 07:02:28;;;;;;;16.50;7.30;;;;;;;;;;4995403;28;20011;-83
2021/03/06 07:04:57;;;;;;;18.60;9.38;;;;;;;;;;5016832;28;20030;-83
2021/03/06 07:07:25;;;;;;;15.93;8.05;;;;;;;;;;5022763;28;20030;-83
2021/03/06 07:09:54;;;;;;;18.67;7.88;;;;;;;;;;5005986;28;20784;-83
2021/03/06 07:12:19;;;;;;;18.42;7.70;;;;;;;;;;5010703;28;20432;-84
2021/03/06 07:14:45;;;;;;;20.00;8.50;;;;;;;;;;5009158;28;20022;-83
2021/03/06 07:17:10;;;;;;;18.95;8.48;;;;;;;;;;4995514;28;20018;-83
2021/03/06 07:19:40;;;;;;;25.60;7.70;;;;;;;;;;4998523;28;20037;-81
2021/03/06 07:22:05;;;;;;;14.32;6.63;;;;;;;;;;5012531;28;20673;-83
2021/03/06 07:24:30;;;;;;;9.75;6.45;;;;;;;;;;4988553;28;20054;-84
2021/03/06 07:26:56;;;;;;;13.83;6.17;;;;;;;;;;5007215;28;20041;-83
2021/03/06 07:29:21;;;;;;;14.05;8.30;;;;;;;;;;4990283;28;20041;-81
2021/03/06 07:31:48;;;;;;;16.25;7.07;;;;;;;;;;5004751;28;20473;-84
2021/03/06 07:34:13;;;;;;;25.23;7.18;;;;;;;;;;4996383;28;20061;-84
2021/03/06 07:36:41;;;;;;;16.08;6.80;;;;;;;;;;5004364;28;20026;-83
2021/03/06 07:39:09;;;;;;;26.75;7.60;;;;;;;;;;4979190;28;20025;-83
2021/03/06 07:41:37;;;;;;;18.15;5.88;;;;;;;;;;5011849;28;20057;-83
2021/03/06 07:44:03;;;;;;;14.80;6.18;;;;;;;;;;5009188;28;20026;-83
2021/03/06 07:46:29;;;;;;;11.60;5.90;;;;;;;;;;4989651;28;20029;-83
2021/03/06 07:48:57;;;;;;;12.65;5.28;;;;;;;;;;5007790;28;20402;-83
2021/03/06 07:51:22;;;;;;;16.65;5.15;;;;;;;;;;5007552;28;20351;-83
2021/03/06 07:53:48;;;;;;;11.18;5.05;;;;;;;;;;5012162;28;20033;-81
2021/03/06 07:56:13;;;;;;;15.30;5.13;;;;;;;;;;4999358;28;20489;-84
2021/03/06 07:58:46;;;;;;;10.15;4.55;;;;;;;;;;4987312;28;20018;-84
2021/03/06 08:01:30;;;;;;;13.02;4.70;;;;;;;;;;5020251;28;20655;-81
2021/03/06 08:03:56;;;;;;;13.98;5.40;;;;;;;;;;5010770;28;20081;-84
2021/03/06 08:06:25;;;;;;;66.45;7.38;;;;;;;;;;5000591;28;20018;-81
2021/03/06 08:08:54;;;;;;;29.35;6.60;;;;;;;;;;5009011;28;20025;-84
2021/03/06 08:11:23;;;;;;;17.90;4.53;;;;;;;;;;4987280;28;20031;-82
2021/03/06 08:13:51;;;;;;;9.20;4.85;;;;;;;;;;4984729;28;20030;-82
2021/03/06 08:16:20;;;;;;;11.32;4.60;;;;;;;;;;4992293;28;20034;-82
2021/03/06 08:18:45;;;;;;;31.08;6.53;;;;;;;;;;4987602;28;20029;-82
2021/03/06 08:21:30;;;;;;;78.30;9.25;;;;;;;;;;5016319;28;20025;-83
2021/03/06 08:24:14;;;;;;;76.03;11.88;;;;;;;;;;5009261;28;20014;-82
2021/03/06 08:26:39;;;;;;;25.88;5.43;;;;;;;;;;5011863;28;20497;-83
2021/03/06 08:29:23;;;;;;;22.08;5.00;;;;;;;;;;4998335;28;20026;-83
2021/03/06 08:32:05;;;;;;;16.90;4.85;;;;;;;;;;5003542;28;20017;-83
2021/03/06 08:34:31;;;;;;;20.58;4.32;;;;;;;;;;5009340;28;20394;-83
2021/03/06 08:37:15;;;;;;;10.82;4.60;;;;;;;;;;4996134;28;20038;-83
2021/03/06 08:39:40;;;;;;;11.63;3.58;;;;;;;;;;4997869;28;20046;-83
2021/03/06 08:42:05;;;;;;;12.70;3.17;;;;;;;;;;4980109;28;20029;-82
2021/03/06 08:44:30;;;;;;;9.70;3.73;;;;;;;;;;4998228;28;20932;-82
2021/03/06 08:46:56;;;;;;;12.88;3.58;;;;;;;;;;5010268;28;20259;-83
2021/03/06 08:49:22;;;;;;;8.43;3.42;;;;;;;;;;4999104;28;20069;-83
2021/03/06 08:51:47;;;;;;;11.73;3.78;;;;;;;;;;4976522;28;20462;-83
2021/03/06 08:54:13;;;;;;;13.77;5.22;;;;;;;;;;5001035;28;20029;-83
2021/03/06 08:56:38;;;;;;;11.65;3.10;;;;;;;;;;5022546;28;20028;-83
2021/03/06 08:59:04;;;;;;;7.55;2.45;;;;;;;;;;4989932;28;20018;-82
2021/03/06 09:01:33;;;;;;;9.88;3.85;;;;;;;;;;5024913;28;20018;-83
2021/03/06 09:03:58;;;;;;;17.17;3.00;;;;;;;;;;5013764;28;20018;-82
2021/03/06 09:06:33;;;;;;;11.63;2.90;;;;;;;;;;4989759;28;20381;-82
2021/03/06 09:08:59;;;;;;;8.95;2.83;;;;;;;;;;4989094;28;20354;-83
2021/03/06 09:11:25;;;;;;;9.82;3.10;;;;;;;;;;5001874;28;20130;-83
2021/03/06 09:13:50;;;;;;;14.45;3.05;;;;;;;;;;5000552;28;20030;-83
2021/03/06 09:16:16;;;;;;;10.23;2.67;;;;;;;;;;5020791;28;20034;-83
2021/03/06 09:18:41;;;;;;;6.05;2.80;;;;;;;;;;5033242;28;20022;-83
2021/03/06 09:21:15;;;;;;;7.37;3.10;;;;;;;;;;5030238;28;20027;-83
2021/03/06 09:23:44;;;;;;;10.63;2.95;;;;;;;;;;5024213;28;20263;-83
2021/03/06 09:26:19;;;;;;;12.35;2.63;;;;;;;;;;5007653;28;20038;-83
2021/03/06 09:28:46;;;;;;;8.45;2.47;;;;;;;;;;4991095;28;20064;-83
2021/03/06 09:31:12;;;;;;;17.02;3.00;;;;;;;;;;4997359;28;20026;-83
2021/03/06 09:33:38;;;;;;;11.73;2.30;;;;;;;;;;4992653;28;20061;-82
2021/03/06 09:36:06;;;;;;;12.38;2.95;;;;;;;;;;5021343;28;20531;-83
2021/03/06 09:38:32;;;;;;;13.27;3.25;;;;;;;;;;4991705;28;20153;-82
2021/03/06 09:40:58;;;;;;;6.93;2.05;;;;;;;;;;4986116;28;20057;-82
2021/03/06 09:43:28;;;;;;;15.38;3.13;;;;;;;;;;5003816;28;20025;-83
2021/03/06 09:45:54;;;;;;;13.73;2.85;;;;;;;;;;4991483;28;20053;-83
2021/03/06 09:48:19;;;;;;;8.25;1.70;;;;;;;;;;5012602;28;20099;-83
2021/03/06 09:50:45;;;;;;;5.13;1.73;;;;;;;;;;4997941;28;20057;-83
2021/03/06 09:53:17;;;;;;;8.15;1.70;;;;;;;;;;4998177;28;20478;-82
2021/03/06 09:55:42;;;;;;;8.98;2.00;;;;;;;;;;5013399;28;20032;-82
2021/03/06 09:58:17;;;;;;;12.00;2.53;;;;;;;;;;5014453;28;20022;-83
2021/03/06 10:00:43;;;;;;;12.80;2.40;;;;;;;;;;5004339;28;20029;-83
2021/03/06 10:03:08;;;;;;;10.35;1.80;;;;;;;;;;5008494;28;20022;-82
2021/03/06 10:05:34;;;;;;;5.97;1.80;;;;;;;;;;5012186;28;20038;-83
2021/03/06 10:07:59;;;;;;;10.38;1.95;;;;;;;;;;4986839;28;20045;-83
2021/03/06 10:10:25;;;;;;;13.93;3.00;;;;;;;;;;4988067;28;20018;-83
2021/03/06 10:12:51;;;;;;;10.18;1.75;;;;;;;;;;4991503;28;20030;-83
2021/03/06 10:15:16;;;;;;;5.32;1.42;;;;;;;;;;5013430;28;20034;-83
2021/03/06 10:17:43;;;;;;;10.70;2.38;;;;;;;;;;5001688;28;20776;-83
2021/03/06 10:20:10;;;;;;;5.82;1.70;;;;;;;;;;5002054;28;20018;-82
2021/03/06 10:22:45;;;;;;;7.90;2.08;;;;;;;;;;5007574;28;20089;-82
2021/03/06 10:25:11;;;;;;;7.75;1.95;;;;;;;;;;4991373;28;20041;-82
2021/03/06 10:27:39;;;;;;;5.65;1.63;;;;;;;;;;5012849;28;20046;-82
2021/03/06 10:30:11;;;;;;;8.57;1.70;;;;;;;;;;5029125;28;20014;-82
2021/03/06 10:32:40;;;;;;;5.93;1.02;;;;;;;;;;5007640;28;20377;-82
2021/03/06 10:35:06;;;;;;;16.23;2.83;;;;;;;;;;5014405;28;20024;-84
2021/03/06 10:37:32;;;;;;;5.78;2.22;;;;;;;;;;5015321;28;20373;-84
2021/03/06 10:40:02;;;;;;;7.40;1.80;;;;;;;;;;5017334;28;20030;-82
2021/03/06 10:42:44;;;;;;;7.22;1.40;;;;;;;;;;5009990;28;20259;-82
2021/03/06 10:45:22;;;;;;;5.72;1.75;;;;;;;;;;5009105;28;20022;-83
2021/03/06 10:47:51;;;;;;;3.58;1.73;;;;;;;;;;4995411;28;20486;-82
2021/03/06 10:50:22;;;;;;;5.32;1.10;;;;;;;;;;4996813;28;20017;-83
2021/03/06 10:52:47;;;;;;;5.53;1.63;;;;;;;;;;5004210;28;20006;-83
2021/03/06 10:55:12;;;;;;;5.30;1.60;;;;;;;;;;4999141;28;20025;-83
2021/03/06 10:57:48;;;;;;;4.87;1.37;;;;;;;;;;5016448;28;20288;-81
2021/03/06 11:00:13;;;;;;;;;;;;;;;;;;5007399;28;20022;-83
2021/03/06 11:02:38;;;;;;;4.70;0.93;;;;;;;;;;5020810;28;19916;-83
2021/03/06 11:05:14;;;;;;;6.05;1.30;;;;;;;;;;4990823;28;20045;-83
2021/03/06 11:07:39;;;;;;;7.13;1.30;;;;;;;;;;5023126;28;20029;-83
2021/03/06 11:10:04;;;;;;;5.40;2.13;;;;;;;;;;5008379;28;20367;-83
2021/03/06 11:12:31;;;;;;;3.20;1.02;;;;;;;;;;5015857;28;20778;-83
2021/03/06 11:15:07;;;;;;;4.13;1.48;;;;;;;;;;5012347;28;20077;-84
2021/03/06 11:17:32;;;;;;;3.92;0.90;;;;;;;;;;4998836;28;20022;-83
2021/03/06 11:19:57;;;;;;;3.80;1.97;;;;;;;;;;5009215;28;20077;-83
2021/03/06 11:22:25;;;;;;;8.45;1.13;;;;;;;;;;5000383;28;20026;-83
2021/03/06 11:24:50;;;;;;;7.40;1.27;;;;;;;;;;4998694;28;20112;-83
2021/03/06 11:27:35;;;;;;;10.20;1.25;;;;;;;;;;5021086;28;20061;-83
2021/03/06 11:30:00;;;;;;;5.20;1.02;;;;;;;;;;4999867;28;20029;-83
2021/03/06 11:32:25;;;;;;;2.13;1.00;;;;;;;;;;4997756;28;20030;-83
2021/03/06 11:34:50;;;;;;;5.30;1.30;;;;;;;;;;5014465;28;20912;-83
2021/03/06 11:37:17;;;;;;;8.53;1.80;;;;;;;;;;5005513;28;20042;-82
2021/03/06 11:39:42;;;;;;;5.32;1.10;;;;;;;;;;4989898;28;20065;-82
2021/03/06 11:42:08;;;;;;;6.10;1.40;;;;;;;;;;5009343;28;20096;-83
2021/03/06 11:44:34;;;;;;;6.75;1.15;;;;;;;;;;4997347;28;20402;-83
2021/03/06 11:47:02;;;;;;;3.33;1.10;;;;;;;;;;5007028;28;20032;-83
2021/03/06 11:49:28;;;;;;;5.93;1.20;;;;;;;;;;4997051;28;20090;-82
2021/03/06 11:51:53;;;;;;;3.88;1.10;;;;;;;;;;4991063;28;20101;-82
2021/03/06 11:54:19;;;;;;;3.43;1.27;;;;;;;;;;5016412;28;20091;-82
2021/03/06 11:56:48;;;;;;;3.75;1.13;;;;;;;;;;5000219;28;20364;-83
2021/03/06 11:59:14;;;;;;;6.45;0.85;;;;;;;;;;4997722;28;20105;-83
2021/03/06 12:01:39;;;;;;;5.80;1.40;;;;;;;;;;5012575;28;20795;-83
2021/03/06 12:04:05;;;;;;;4.55;1.40;;;;;;;;;;5002223;28;20013;-83
2021/03/06 12:06:30;;;;;;;4.72;1.17;;;;;;;;;;5026023;28;20030;-83
2021/03/06 12:08:55;;;;;;;7.77;2.00;;;;;;;;;;5016436;28;20588;-83
2021/03/06 12:11:20;;;;;;;4.53;1.25;;;;;;;;;;5002398;28;20029;-82
2021/03/06 12:13:46;;;;;;;6.07;1.23;;;;;;;;;;5010517;28;20058;-82
2021/03/06 12:16:11;;;;;;;4.40;1.45;;;;;;;;;;5005462;28;20671;-83
2021/03/06 12:18:39;;;;;;;6.55;2.22;;;;;;;;;;4975096;28;20018;-82
2021/03/06 12:21:04;;;;;;;6.00;1.45;;;;;;;;;;5011897;28;20025;-82
2021/03/06 12:23:29;;;;;;;3.83;1.23;;;;;;;;;;5008015;28;20038;-82
2021/03/06 12:25:54;;;;;;;8.10;1.37;;;;;;;;;;5015686;28;20776;-82
2021/03/06 12:28:20;;;;;;;9.63;1.80;;;;;;;;;;4995073;28;20034;-82
2021/03/06 12:30:45;;;;;;;5.70;1.57;;;;;;;;;;4997817;28;20267;-81
2021/03/06 12:33:10;;;;;;;4.73;1.23;;;;;;;;;;5000224;28;20267;-84
2021/03/06 12:35:35;;;;;;;4.30;1.67;;;;;;;;;;5020085;28;20037;-83
2021/03/06 12:38:00;;;;;;;5.43;1.10;;;;;;;;;;5018765;28;20076;-82
2021/03/06 12:40:25;;;;;;;3.93;1.00;;;;;;;;;;4994346;28;20033;-83
2021/03/06 12:42:51;;;;;;;5.50;1.57;;;;;;;;;;4995903;28;20050;-82
2021/03/06 12:45:16;;;;;;;2.90;0.97;;;;;;;;;;4990359;28;20035;-82
2021/03/06 12:47:41;;;;;;;9.10;1.25;;;;;;;;;;4993242;28;20335;-83
2021/03/06 12:50:07;;;;;;;4.03;1.05;;;;;;;;;;5011256;28;20029;-82
2021/03/06 12:52:33;;;;;;;11.15;1.73;;;;;;;;;;5019028;28;20385;-83
2021/03/06 12:54:58;;;;;;;14.07;2.10;;;;;;;;;;5006342;28;20037;-83
2021/03/06 12:57:23;;;;;;;4.10;1.20;;;;;;;;;;5014559;28;20025;-83
2021/03/06 12:59:49;;;;;;;6.23;1.60;;;;;;;;;;4990148;28;20030;-83
2021/03/06 13:02:14;;;;;;;6.93;1.60;;;;;;;;;;4988100;28;20470;-83
2021/03/06 13:04:40;;;;;;;4.68;1.25;;;;;;;;;;5017963;28;20378;-83
2021/03/06 13:07:06;;;;;;;6.55;1.45;;;;;;;;;;4992848;28;20029;-83
2021/03/06 13:09:31;;;;;;;5.37;1.80;;;;;;;;;;5014990;28;20085;-82
2021/03/06 13:11:56;;;;;;;2.33;1.23;;;;;;;;;;5008480;28;20033;-83
2021/03/06 13:14:21;;;;;;;5.45;1.17;;;;;;;;;;4996923;28;20263;-83
2021/03/06 13:16:46;;;;;;;5.97;2.28;;;;;;;;;;5022765;28;20028;-83
2021/03/06 13:19:12;;;;;;;3.05;0.95;;;;;;;;;;5003124;28;20006;-83
2021/03/06 13:21:37;;;;;;;3.17;1.05;;;;;;;;;;5012790;28;20010;-83
2021/03/06 13:24:02;;;;;;;7.78;1.23;;;;;;;;;;5025529;28;20058;-83
2021/03/06 13:26:37;;;;;;;3.50;1.00;;;;;;;;;;5002553;28;20026;-84
2021/03/06 13:29:03;;;;;;;3.80;1.05;;;;;;;;;;5014537;28;20027;-83
2021/03/06 13:31:28;;;;;;;4.07;1.10;;;;;;;;;;5011734;28;20018;-82
2021/03/06 13:33:53;;;;;;;8.20;2.53;;;;;;;;;;5012976;28;20032;-81
2021/03/06 13:36:19;;;;;;;8.50;1.45;;;;;;;;;;5010715;28;20038;-83
2021/03/06 13:38:44;;;;;;;4.40;1.70;;;;;;;;;;5018523;28;20655;-83
2021/03/06 13:41:09;;;;;;;4.20;1.20;;;;;;;;;;5001736;28;20279;-84
2021/03/06 13:43:34;;;;;;;3.67;1.10;;;;;;;;;;5011873;28;20026;-84
2021/03/06 13:45:59;;;;;;;4.80;1.40;;;;;;;;;;4992301;28;20022;-83
2021/03/06 13:48:28;;;;;;;12.63;1.77;;;;;;;;;;5006472;28;20046;-83
2021/03/06 13:51:06;;;;;;;4.50;1.20;;;;;;;;;;4997555;28;20050;-84
2021/03/06 13:53:31;;;;;;;5.13;1.35;;;;;;;;;;5023879;28;20033;-83
2021/03/06 13:56:16;;;;;;;9.82;1.80;;;;;;;;;;5012911;28;20038;-83
2021/03/06 13:59:01;;;;;;;5.22;2.05;;;;;;;;;;5018931;28;20030;-83
2021/03/06 14:01:29;;;;;;;4.47;1.40;;;;;;;;;;4994050;28;20109;-83
2021/03/06 14:03:57;;;;;;;5.93;1.30;;;;;;;;;;4997424;28;20299;-83
2021/03/06 14:06:22;;;;;;;5.90;1.60;;;;;;;;;;5009808;28;22010;-83
2021/03/06 14:08:47;;;;;;;2.40;1.20;;;;;;;;;;5006894;28;20859;-83
2021/03/06 14:11:14;;;;;;;4.35;1.20;;;;;;;;;;4993182;28;20623;-84
2021/03/06 14:13:41;;;;;;;4.53;1.10;;;;;;;;;;4996613;28;20064;-83
2021/03/06 14:16:06;;;;;;;3.20;1.08;;;;;;;;;;5012466;28;21012;-83
2021/03/06 14:18:31;;;;;;;1.98;1.00;;;;;;;;;;5023002;28;20057;-84
2021/03/06 14:20:56;;;;;;;2.70;1.20;;;;;;;;;;5014841;28;20077;-84
2021/03/06 14:23:22;;;;;;;3.70;1.30;;;;;;;;;;5020945;28;20031;-83
2021/03/06 14:25:47;;;;;;;5.33;1.27;;;;;;;;;;5007390;28;20095;-82
2021/03/06 14:28:12;;;;;;;3.77;1.23;;;;;;;;;;5008555;28;20251;-83
2021/03/06 14:30:37;;;;;;;4.37;1.23;;;;;;;;;;5006656;28;20716;-83
2021/03/06 14:33:03;;;;;;;2.87;1.10;;;;;;;;;;5011429;28;20251;-84
2021/03/06 14:35:28;;;;;;;3.20;1.10;;;;;;;;;;5019342;28;20029;-84
2021/03/06 14:37:53;;;;;;;4.20;1.30;;;;;;;;;;5003708;28;20256;-83